Healy, AK (99743)

10:52 PM AKST on February 27, 2017 (GMT -0900)
Subdivision - Sulfide (Tench) | | Change Station

Elev 1374 ft 63.87 °N, 148.99 °W | Updated 31 seconds ago

Overcast
Overcast
13.6 °F
Feels Like 7 °F
N
4.0
Wind Variable Wind from NNW
Gusts 4.9 mph

Today
High -- | Low -- °F
--% Chance of Precip.
Yesterday
High -- | Low -- °F
Precip. -- in
Pressure 29.86 in
Visibility 9.0 miles
Clouds Few 2200 ft
Scattered Clouds 4300 ft
Overcast 4900 ft
Windchill 7 °F
Dew Point -0 °F
Humidity 53%
Rainfall 0.00 in
Snow Depth Not available.
8:07 AM 6:10 PM
Waxing Crescent, 4% visible
METAR PAIN 280736Z AUTO 23003KT 9SM FEW022 SCT043 OVC049 M11/M13 A2986 RMK AO1
Pressure 29.86 in
Visibility 9.0 miles
Clouds Few 2200 ft
Scattered Clouds 4300 ft
Overcast 4900 ft
Windchill 7 °F
Dew Point -0 °F
Humidity 53%
Rainfall 0.00 in
Snow Depth Not available.
8:07 AM 6:10 PM
Waxing Crescent, 4% visible
METAR PAIN 280736Z AUTO 23003KT 9SM FEW022 SCT043 OVC049 M11/M13 A2986 RMK AO1

Get Your Daily Forecast Email!

Thanks for signing up!

Be on the lookout for a verification email in your inbox.

You'll start receiving the daily forecast at 8 AM.

×

10-Day Weather Forecast

Almanac

Astronomy

Feb. 27, 2017 Rise Set
Actual Time
Civil Twilight
Nautical Twilight
Astronomical Twilight
Moon
Length of Visible Light
Length of Day
Tomorrow will be .
, % of the Moon is Illuminated

Today's Extremes

State Highs State Lows

Community

WunderPhotos

Upload Photos

1,962,540 photos uploaded!

WunderBlog® & News

Nearby

Air Quality

  Air Quality AQ Index Pollutant
Not available.

Snow Depth

Station Depth Elevation

Earthquake Activity

City Distance Mag. Time & Date
Minimum magnitude displayed is 2.5.

Coastal Water Temperatures

Place Temperature

Stations

Nearby Weather Stations

Station Location Temp. Windchill Dew Point Humidity Wind Precip. Elev Updated Type
                   

Watches & Warnings

There are currently no watches in effect.